Time;durP1;ratioP1;P1;durP2;ratioP2;P2;SDS_P1;SDS_P2;PMS_P1;PMS_P2;Temp;Humidity;BMP_temperature;BMP_pressure;BME280_temperature;BME280_humidity;BME280_pressure;Samples;Min_cycle;Max_cycle;Signal;HPM_P1;HPM_P2
2023/05/26 00:00:34;;;;;;;4.30;4.10;;;;;;;18.20;100.00;21877.97;6244452;23;20631;-61
2023/05/26 00:03:02;;;;;;;4.30;4.00;;;;;;;18.31;100.00;19928.88;6244153;23;20240;-62
2023/05/26 00:05:29;;;;;;;5.03;4.63;;;;;;;18.35;100.00;20907.00;6244436;23;20235;-62
2023/05/26 00:07:56;;;;;;;3.70;3.47;;;;;;;18.19;100.00;32312.91;6243780;23;20215;-61
2023/05/26 00:10:25;;;;;;;4.27;4.00;;;;;;;18.39;100.00;36247.53;6244726;23;20223;-62
2023/05/26 00:12:52;;;;;;;4.33;4.03;;;;;;;18.30;100.00;40823.38;6244023;23;20165;-61
2023/05/26 00:15:19;;;;;;;4.67;4.20;;;;;;;18.38;100.00;42139.56;6244330;23;20592;-62
2023/05/26 00:17:50;;;;;;;4.33;4.13;;;;;;;18.53;100.00;46742.84;6244526;23;20171;-61
2023/05/26 00:20:17;;;;;;;4.10;3.90;;;;;;;18.57;100.00;45105.38;6243578;23;20233;-62
2023/05/26 00:22:44;;;;;;;4.30;3.97;;;;;;;18.59;100.00;48717.34;6243849;23;20168;-61
2023/05/26 00:25:11;;;;;;;3.97;3.83;;;;;;;18.67;100.00;48395.69;6243952;23;20181;-61
2023/05/26 00:27:39;;;;;;;4.43;4.17;;;;;;;18.65;100.00;49051.34;6243907;23;20168;-63
2023/05/26 00:30:09;;;;;;;4.27;3.97;;;;;;;18.59;100.00;48389.34;6243732;23;20149;-62
2023/05/26 00:32:35;;;;;;;4.60;4.17;;;;;;;18.64;100.00;46751.81;6243853;23;20169;-60
2023/05/26 00:35:02;;;;;;;4.50;4.10;;;;;;;18.61;100.00;45108.53;6243987;23;20157;-61
2023/05/26 00:37:29;;;;;;;4.00;3.70;;;;;;;18.61;100.00;41173.38;6244108;23;20160;-61
2023/05/26 00:39:57;;;;;;;4.47;4.17;;;;;;;18.58;100.00;41171.56;6244237;23;20258;-60
2023/05/26 00:42:24;;;;;;;4.60;4.27;;;;;;;18.57;100.00;40187.91;6243537;23;20201;-61
2023/05/26 00:44:52;;;;;;;5.47;4.33;;;;;;;18.59;100.00;44122.47;6243974;23;20239;-62
2023/05/26 00:47:19;;;;;;;4.27;4.10;;;;;;;18.60;100.00;47733.03;6243759;23;20224;-60
2023/05/26 00:49:46;;;;;;;4.93;4.10;;;;;;;18.44;100.00;46407.34;6244169;23;20236;-61
2023/05/26 00:52:13;;;;;;;4.93;4.50;;;;;;;18.56;100.00;42808.91;6244279;23;20643;-62
2023/05/26 00:54:41;;;;;;;4.60;4.40;;;;;;;18.48;100.00;38544.22;6243935;23;20172;-62
2023/05/26 00:57:08;;;;;;;5.20;4.87;;;;;;;18.49;100.00;38544.91;6245685;23;20211;-62
2023/05/26 00:59:36;;;;;;;5.30;4.90;;;;;;;18.48;100.00;38544.22;6246097;23;20500;-61
2023/05/26 01:02:05;;;;;;;9.30;4.43;;;;;;;18.43;100.00;36904.44;6245870;23;20157;-60
2023/05/26 01:04:32;;;;;;;4.67;4.47;;;;;;;18.48;100.00;37562.22;6245818;23;20156;-64
2023/05/26 01:07:00;;;;;;;5.83;4.93;;;;;;;18.39;100.00;35920.44;6245674;23;20171;-61
2023/05/26 01:09:27;;;;;;;5.20;4.90;;;;;;;18.43;100.00;35268.84;6246135;23;20168;-61
2023/05/26 01:12:01;;;;;;;5.47;5.03;;;;;;;18.43;100.00;35595.91;6245765;23;20654;-61
2023/05/26 01:14:32;;;;;;;5.03;4.73;;;;;;;18.41;100.00;33959.75;6245381;23;20161;-61
2023/05/26 01:17:09;;;;;;;5.40;5.03;;;;;;;18.40;100.00;35266.97;6245486;23;20161;-62
2023/05/26 01:19:56;;;;;;;5.20;4.80;;;;;;;18.44;100.00;38213.81;6245817;23;20185;-61
2023/05/26 01:22:37;;;;;;;4.97;4.57;;;;;;;18.49;100.00;38871.97;6245296;23;20163;-61
2023/05/26 01:25:18;;;;;;;5.13;4.73;;;;;;;18.25;100.00;41147.63;6245500;23;20156;-62
2023/05/26 01:27:50;;;;;;;5.93;4.90;;;;;;;18.51;100.00;39528.59;6245312;23;20247;-61
2023/05/26 01:30:20;;;;;;;16.80;6.60;;;;;;;18.56;100.00;41825.53;6245210;23;20153;-61
2023/05/26 01:32:48;;;;;;;5.87;5.03;;;;;;;18.53;100.00;46742.84;6245534;23;20639;-61
2023/05/26 01:35:15;;;;;;;4.43;4.23;;;;;;;18.55;100.00;56605.41;6245523;23;20161;-62
2023/05/26 01:37:45;;;;;;;4.90;4.70;;;;;;;18.51;100.00;54955.63;6245535;23;20157;-61
2023/05/26 01:40:13;;;;;;;5.30;4.87;;;;;;;18.53;100.00;59237.31;6245064;23;20187;-60
2023/05/26 01:42:43;;;;;;;5.40;4.73;;;;;;;18.55;100.00;63194.78;6244956;23;20196;-62
2023/05/26 01:45:16;;;;;;;4.90;4.57;;;;;;;18.52;100.00;64840.91;6245445;23;20603;-62
2023/05/26 01:47:48;;;;;;;6.40;4.50;;;;;;;18.49;100.00;68138.56;6245359;23;20157;-61
2023/05/26 01:50:18;;;;;;;5.27;4.90;;;;;;;18.58;100.00;68480.00;6245417;23;20488;-61
2023/05/26 01:52:49;;;;;;;4.40;4.10;;;;;;;18.65;100.00;67166.94;6245529;23;20499;-61
2023/05/26 01:55:18;;;;;;;4.40;4.03;;;;;;;18.61;100.00;69805.22;6245305;23;20167;-60
2023/05/26 01:57:47;;;;;;;4.50;4.30;;;;;;;18.62;100.00;70467.47;6245260;23;20161;-62
2023/05/26 02:00:15;;;;;;;4.30;4.00;;;;;;;18.54;100.00;84366.81;6245159;23;20259;-60
2023/05/26 02:02:42;;;;;;;5.10;4.83;;;;;;;18.41;100.00;80369.06;6245027;23;20153;-61
2023/05/26 02:05:10;;;;;;;5.27;4.50;;;;;;;18.57;100.00;78734.66;6244920;23;20160;-61
2023/05/26 02:07:40;;;;;;;4.97;4.67;;;;;;;18.65;100.00;79408.19;6244605;23;20168;-60
2023/05/26 02:10:08;;;;;;;4.70;4.40;;;;;;;18.69;100.00;81071.28;6245442;23;20626;-61
2023/05/26 02:12:35;;;;;;;4.47;4.20;;;;;;;18.76;100.00;84397.66;6244921;23;20161;-61
2023/05/26 02:15:01;;;;;;;4.67;4.20;;;;;;;18.78;100.00;86725.19;6245021;23;20157;-61
2023/05/26 02:17:28;;;;;;;4.87;4.40;;;;;;;18.79;100.00;86062.31;6245294;23;20157;-60
2023/05/26 02:19:55;;;;;;;5.80;4.53;;;;;;;18.75;100.00;88050.53;6244613;23;20181;-62
2023/05/26 02:22:24;;;;;;;4.23;3.93;;;;;;;18.89;100.00;83420.34;6245069;23;20519;-62
2023/05/26 02:24:51;;;;;;;4.40;4.20;;;;;;;18.75;100.00;80083.41;6244639;23;20161;-61
2023/05/26 02:27:18;;;;;;;5.00;4.57;;;;;;;18.65;100.00;75102.22;6244623;23;20165;-61
2023/05/26 02:29:44;;;;;;;4.60;4.30;;;;;;;18.47;100.00;70449.34;6244622;23;20160;-61
2023/05/26 02:32:11;;;;;;;5.77;4.50;;;;;;;18.63;100.00;66503.63;6244810;23;20218;-62
2023/05/26 02:34:38;;;;;;;4.70;4.50;;;;;;;18.61;100.00;65511.00;6244492;23;20157;-61
2023/05/26 02:37:05;;;;;;;6.43;4.90;;;;;;;18.59;100.00;61550.88;6245076;23;20610;-60
2023/05/26 02:39:34;;;;;;;12.20;6.10;;;;;;;18.54;100.00;62204.44;6244579;23;20263;-61
2023/05/26 02:42:01;;;;;;;5.50;5.03;;;;;;;18.58;100.00;61220.19;6244514;23;20280;-60
2023/05/26 02:44:27;;;;;;;5.70;5.20;;;;;;;18.64;100.00;59578.03;6244780;23;20608;-61
2023/05/26 02:46:54;;;;;;;5.83;5.30;;;;;;;18.51;100.00;58247.66;6245118;23;20592;-61
2023/05/26 02:49:23;;;;;;;6.03;5.30;;;;;;;18.49;100.00;55282.72;6244366;23;20628;-60
2023/05/26 02:51:50;;;;;;;5.37;4.87;;;;;;;18.50;100.00;55613.19;6244508;23;20191;-61
2023/05/26 02:54:17;;;;;;;5.17;4.67;;;;;;;18.29;100.00;50990.97;6244769;23;20188;-61
2023/05/26 02:56:45;;;;;;;7.40;5.30;;;;;;;18.54;100.00;50355.94;6244704;23;20157;-62
2023/05/26 02:59:12;;;;;;;5.93;5.43;;;;;;;18.46;100.00;47721.38;6244525;23;20157;-62
2023/05/26 03:01:39;;;;;;;6.10;4.93;;;;;;;18.30;100.00;47052.16;6244500;23;20184;-62
2023/05/26 03:04:06;;;;;;;7.87;5.17;;;;;;;18.38;100.00;45746.34;6244720;23;20165;-61
2023/05/26 03:06:34;;;;;;;6.30;4.73;;;;;;;18.26;100.00;44425.16;6244288;23;20163;-61
2023/05/26 03:09:01;;;;;;;5.40;5.10;;;;;;;18.09;100.00;42118.47;6244244;23;20168;-60
2023/05/26 03:11:28;;;;;;;5.13;4.80;;;;;;;18.22;100.00;42783.34;6244148;23;20205;-62
2023/05/26 03:13:56;;;;;;;5.17;4.87;;;;;;;18.27;100.00;41804.19;6244097;23;20239;-61
2023/05/26 03:16:24;;;;;;;6.13;5.37;;;;;;;18.41;100.00;45420.72;6244608;23;20156;-61
2023/05/26 03:18:51;;;;;;;5.27;4.87;;;;;;;18.50;100.00;49695.41;6244045;23;20555;-62
2023/05/26 03:21:18;;;;;;;5.73;5.33;;;;;;;18.29;100.00;50334.03;6243879;23;20185;-62
2023/05/26 03:23:46;;;;;;;5.70;5.20;;;;;;;18.37;100.00;48370.81;6244176;23;20226;-61
2023/05/26 03:26:13;;;;;;;5.13;4.73;;;;;;;18.36;100.00;48041.69;6244340;23;20240;-62
2023/05/26 03:28:40;;;;;;;5.67;5.27;;;;;;;18.40;100.00;46731.81;6244469;23;20160;-61
2023/05/26 03:31:08;;;;;;;5.20;5.00;;;;;;;18.57;100.00;48715.66;6244045;23;20153;-61
2023/05/26 03:33:35;;;;;;;7.80;4.87;;;;;;;18.52;100.00;52326.09;6243694;23;20154;-61
2023/05/26 03:36:03;;;;;;;5.17;4.80;;;;;;;18.51;100.00;51339.09;6244393;23;20188;-61
2023/05/26 03:38:29;;;;;;;6.50;5.37;;;;;;;18.52;100.00;48711.81;6243938;23;20157;-61
2023/05/26 03:40:56;;;;;;;5.13;4.70;;;;;;;18.51;100.00;49039.38;6244829;23;20651;-61
2023/05/26 03:43:23;;;;;;;4.83;4.60;;;;;;;18.58;100.00;53317.56;6243830;23;20539;-62
2023/05/26 03:45:50;;;;;;;5.70;5.30;;;;;;;18.59;100.00;52331.97;6244098;23;20161;-61
2023/05/26 03:48:18;;;;;;;5.50;5.00;;;;;;;18.59;100.00;53318.94;6244241;23;20293;-61
2023/05/26 03:50:46;;;;;;;4.83;4.63;;;;;;;18.61;100.00;54307.59;6244176;23;20245;-62
2023/05/26 03:53:13;;;;;;;5.30;4.90;;;;;;;18.55;100.00;53643.66;6244282;23;20596;-61
2023/05/26 03:55:40;;;;;;;12.77;5.83;;;;;;;18.60;100.00;51018.44;6243893;23;20153;-61
2023/05/26 03:58:07;;;;;;;7.53;5.40;;;;;;;18.38;100.00;44434.09;6217645;23;20171;-61
2023/05/26 04:00:34;;;;;;;6.17;5.57;;;;;;;18.55;100.00;46415.88;6244181;23;20177;-61
2023/05/26 04:03:01;;;;;;;9.57;5.37;;;;;;;18.71;100.00;40197.84;6244324;23;20161;-62
2023/05/26 04:05:29;;;;;;;6.07;4.97;;;;;;;18.83;100.00;59597.53;6243767;23;20168;-61
2023/05/26 04:07:56;;;;;;;5.10;4.70;;;;;;;18.85;100.00;55975.16;6244240;23;20560;-61
2023/05/26 04:10:23;;;;;;;9.43;5.23;;;;;;;18.74;100.00;53989.84;6243842;23;20164;-61
2023/05/26 04:12:50;;;;;;;7.10;5.37;;;;;;;18.84;100.00;53999.66;6244074;23;20240;-61
2023/05/26 04:15:17;;;;;;;6.10;5.70;;;;;;;18.76;100.00;59260.25;6244144;23;20240;-60
2023/05/26 04:17:44;;;;;;;9.17;5.87;;;;;;;19.00;100.00;64233.44;6244146;23;20157;-61
2023/05/26 04:20:11;;;;;;;7.23;6.30;;;;;;;19.12;100.00;66229.13;6243868;23;20181;-61
2023/05/26 04:22:39;;;;;;;8.90;6.20;;;;;;;19.07;100.00;68205.72;6245016;23;20189;-62
2023/05/26 04:25:08;;;;;;;6.37;5.80;;;;;;;19.13;100.00;64248.34;6244489;23;20595;-60
2023/05/26 04:27:35;;;;;;;6.90;6.20;;;;;;;19.17;100.00;68548.66;6244091;23;20243;-62
2023/05/26 04:30:02;;;;;;;5.90;5.53;;;;;;;19.10;100.00;64905.50;6244522;23;20160;-61
2023/05/26 04:32:29;;;;;;;7.13;6.43;;;;;;;19.38;100.00;66588.63;6246424;23;20604;-61
2023/05/26 04:34:57;;;;;;;12.50;7.17;;;;;;;19.29;100.00;69223.06;6246217;23;20157;-61
2023/05/26 04:37:24;;;;;;;8.30;4.93;;;;;;;19.58;100.00;80860.78;6246392;23;20153;-61
2023/05/26 04:39:52;;;;;;;7.70;5.40;;;;;;;19.67;100.00;94516.13;6245872;23;20164;-62
2023/05/26 04:42:20;;;;;;;10.33;5.47;;;;;;;19.47;100.00;92152.44;6246164;23;20647;-61
2023/05/26 04:44:47;;;;;;;11.53;4.97;;;;;;;19.79;100.00;104889.13;6245416;23;20161;-62
2023/05/26 04:47:16;;;;;;;13.27;6.10;;;;;;;19.77;100.00;119297.84;6245752;23;20165;-62
2023/05/26 04:49:43;;;;;;;6.10;4.90;;;;;;;19.87;100.00;123014.94;6245697;23;20173;-61
2023/05/26 04:52:10;;;;;;;4.70;4.30;;;;;;;20.02;100.00;130789.56;6245662;23;20164;-61
2023/05/26 04:54:40;;;;;;;8.90;4.50;;;;;;;20.03;100.00;135852.88;6245900;23;20167;-62
2023/05/26 04:57:09;;;;;;;4.43;4.23;;;;;;;20.03;100.00;124729.28;6245996;23;20231;-62
2023/05/26 04:59:37;;;;;;;7.27;4.17;;;;;;;20.05;100.00;126753.25;6245888;23;20196;-62
2023/05/26 05:02:05;;;;;;;7.37;4.53;;;;;;;19.98;100.00;117323.88;6245866;23;20264;-60
2023/05/26 05:04:32;;;;;;;5.67;5.27;;;;;;;19.97;100.00;116650.41;6245708;23;20164;-62
2023/05/26 05:07:03;;;;;;;5.53;4.83;;;;;;;20.09;100.00;119025.25;6246163;23;20612;-61
2023/05/26 05:09:29;;;;;;;5.27;4.57;;;;;;;20.20;100.00;115352.59;6246055;23;20161;-61
2023/05/26 05:11:56;;;;;;;6.63;5.00;;;;;;;20.28;100.00;122762.59;6246360;23;20486;-62
2023/05/26 05:14:25;;;;;;;6.03;5.50;;;;;;;20.27;100.00;128147.94;6245921;23;20157;-61
2023/05/26 05:16:52;;;;;;;6.07;4.70;;;;;;;20.28;100.00;134558.44;6245299;23;20176;-62
2023/05/26 05:19:19;;;;;;;5.90;5.37;;;;;;;20.34;100.00;132546.91;6245244;23;20271;-62
2023/05/26 05:21:46;;;;;;;16.27;5.73;;;;;;;20.49;100.00;133930.78;6245516;23;20180;-62
2023/05/26 05:24:13;;;;;;;4.97;4.40;;;;;;;20.57;100.00;140360.34;6245765;23;20215;-61
2023/05/26 05:26:40;;;;;;;5.17;4.50;;;;;;;20.62;100.00;151221.44;6245812;23;20558;-61
2023/05/26 05:29:08;;;;;;;6.10;4.90;;;;;;;20.72;100.00;151245.59;6246184;23;20179;-60
2023/05/26 05:31:37;;;;;;;6.87;5.53;;;;;;;20.79;100.00;150099.47;6218601;23;20223;-60
2023/05/26 05:34:04;;;;;;;8.67;5.27;;;;;;;20.80;100.00;151265.97;6245546;23;20617;-62
2023/05/26 05:36:31;;;;;;;8.47;5.43;;;;;;;20.89;100.00;151288.91;6245651;23;20563;-61
2023/05/26 05:38:58;;;;;;;10.47;5.90;;;;;;;21.04;100.00;151325.88;6218950;23;20179;-61
2023/05/26 05:41:25;;;;;;;10.52;6.43;;;;;;;21.04;100.00;151327.16;6244317;23;20259;-62
2023/05/26 05:43:56;;;;;;;11.57;6.13;;;;;;;21.30;100.00;151392.19;6244839;23;20543;-61
2023/05/26 05:46:23;;;;;;;8.73;6.37;;;;;;;21.31;100.00;151395.97;6245141;23;20161;-61
2023/05/26 05:48:54;;;;;;;15.27;6.83;;;;;;;21.44;100.00;151427.84;6219050;23;20168;-61
2023/05/26 05:51:21;;;;;;;9.38;6.40;;;;;;;21.88;100.00;151538.75;6245626;23;20156;-61
2023/05/26 05:53:48;;;;;;;19.50;6.20;;;;;;;22.22;100.00;151625.50;6244950;23;20163;-62
2023/05/26 05:56:14;;;;;;;5.53;5.07;;;;;;;22.64;100.00;151731.34;6245581;23;20161;-63
2023/05/26 05:58:41;;;;;;;5.93;5.43;;;;;;;22.76;100.00;151760.69;6244919;23;20160;-61
2023/05/26 06:01:08;;;;;;;6.80;4.88;;;;;;;22.98;100.00;151816.84;6244894;23;20181;-62
2023/05/26 06:03:35;;;;;;;13.00;5.07;;;;;;;23.22;100.00;151878.06;6245058;23;20256;-62
2023/05/26 06:06:04;;;;;;;5.25;4.75;;;;;;;23.51;100.00;151949.56;6244575;23;20149;-61
2023/05/26 06:08:31;;;;;;;6.20;5.68;;;;;;;24.05;100.00;152087.44;6245196;23;20248;-62
2023/05/26 06:10:58;;;;;;;10.02;6.50;;;;;;;24.68;100.00;152245.81;6245049;23;20587;-62
2023/05/26 06:13:25;;;;;;;4.72;4.50;;;;;;;25.00;100.00;152327.59;6245339;23;20156;-62
2023/05/26 06:15:52;;;;;;;4.32;4.13;;;;;;;25.15;100.00;152363.38;6244883;23;20161;-63
2023/05/26 06:18:19;;;;;;;8.90;4.70;;;;;;;25.81;100.00;152530.81;6245236;23;20157;-62
2023/05/26 06:20:46;;;;;;;9.80;3.95;;;;;;;26.23;100.00;152636.94;6244473;23;20256;-62
2023/05/26 06:23:14;;;;;;;10.55;4.80;;;;;;;26.13;100.00;152611.38;6245125;23;20473;-62
2023/05/26 06:25:41;;;;;;;13.60;4.72;;;;;;;26.76;100.00;152772.53;6244870;23;20179;-62
2023/05/26 06:28:08;;;;;;;6.65;4.40;;;;;;;26.15;100.00;152617.75;6245208;23;20180;-62
2023/05/26 06:30:35;;;;;;;6.13;4.45;;;;;;;26.39;100.00;152677.91;6245174;23;20183;-61
2023/05/26 06:33:02;;;;;;;24.38;4.93;;;;;;;26.04;100.00;152588.34;6245580;23;20492;-61
2023/05/26 06:35:29;;;;;;;4.80;4.03;;;;;;;26.45;100.00;152693.22;6244974;23;20163;-62
2023/05/26 06:37:56;;;;;;;6.45;4.05;;;;;;;27.22;100.00;152887.66;6245080;23;20587;-62
2023/05/26 06:40:24;;;;;;;5.13;4.10;;;;;;;28.20;100.00;153136.03;6245165;23;20161;-62
2023/05/26 06:42:51;;;;;;;16.27;4.45;;;;;;;28.34;100.00;153171.88;6244774;23;20211;-62
2023/05/26 06:45:18;;;;;;;11.68;8.18;;;;;;;28.84;100.00;153298.69;6244782;23;20453;-62
2023/05/26 06:50:25;;;;;;;6.45;3.33;;;;;;;29.81;100.00;153544.66;6242026;23;20179;-62
2023/05/26 06:52:54;;;;;;;5.43;3.83;;;;;;;29.66;100.00;153504.94;6244145;23;20156;-63
2023/05/26 06:55:28;;;;;;;4.05;3.63;;;;;;;29.08;100.00;153358.84;6244250;23;20161;-62
2023/05/26 06:57:55;;;;;;;3.65;3.35;;;;;;;28.58;100.00;153232.03;6244501;23;20160;-62
2023/05/26 07:00:22;;;;;;;3.05;2.90;;;;;;;28.41;100.00;153189.78;6218655;23;20157;-62
2023/05/26 07:02:49;;;;;;;6.38;3.15;;;;;;;28.49;100.00;153208.97;6244819;23;20181;-63
2023/05/26 07:05:16;;;;;;;7.10;4.32;;;;;;;28.79;100.00;153285.84;6244920;23;20205;-62
2023/05/26 07:07:43;;;;;;;8.95;4.32;;;;;;;29.10;96.53;153364.00;6243720;23;20280;-63
2023/05/26 07:10:10;;;;;;;4.32;3.92;;;;;;;29.21;97.81;153392.16;6244628;23;20164;-63
2023/05/26 07:12:39;;;;;;;5.13;3.08;;;;;;;28.59;97.63;153234.59;6244670;23;20236;-60
2023/05/26 07:15:11;;;;;;;2.80;2.70;;;;;;;28.27;96.30;153152.63;6217555;23;20560;-62
2023/05/26 07:17:38;;;;;;;4.70;3.10;;;;;;;27.98;100.00;153080.94;6245244;23;20160;-61
2023/05/26 07:20:06;;;;;;;4.85;4.40;;;;;;;27.87;100.00;153051.50;6244626;23;20157;-63
2023/05/26 07:22:33;;;;;;;4.07;3.40;;;;;;;27.57;100.00;152977.28;6218458;23;20718;-63
2023/05/26 07:25:00;;;;;;;4.20;3.40;;;;;;;27.34;100.00;152918.38;6244157;23;20238;-62
2023/05/26 07:27:27;;;;;;;2.90;2.80;;;;;;;27.20;100.00;152882.56;6244237;23;20160;-63
2023/05/26 07:29:55;;;;;;;3.00;2.80;;;;;;;26.85;100.00;152794.31;6244266;23;20157;-62
2023/05/26 07:32:22;;;;;;;5.40;3.10;;;;;;;27.00;100.00;152831.38;6244371;23;20159;-63
2023/05/26 07:34:49;;;;;;;4.30;3.95;;;;;;;27.07;100.00;152849.31;6244224;23;20156;-63
2023/05/26 07:37:16;;;;;;;3.20;2.90;;;;;;;26.95;100.00;152819.84;6244251;23;20157;-62
2023/05/26 07:39:43;;;;;;;5.05;3.03;;;;;;;27.07;100.00;152849.31;6244158;23;20579;-63
2023/05/26 07:42:10;;;;;;;4.20;3.92;;;;;;;27.15;100.00;152869.78;6244408;23;20824;-65
2023/05/26 07:44:37;;;;;;;2.70;2.50;;;;;;;26.93;100.00;152813.47;6244400;23;20161;-63
2023/05/26 07:47:05;;;;;;;3.47;2.92;;;;;;;27.24;100.00;152892.81;6243957;23;20245;-62
2023/05/26 07:49:32;;;;;;;7.35;4.18;;;;;;;27.51;100.00;152960.63;6244187;23;20160;-63
2023/05/26 07:51:59;;;;;;;3.70;3.42;;;;;;;27.72;100.00;153014.38;6243925;23;20159;-62
2023/05/26 07:54:26;;;;;;;2.50;2.40;;;;;;;27.28;99.64;152904.28;6243994;23;20203;-63
2023/05/26 07:56:53;;;;;;;17.65;13.63;;;;;;;26.96;100.00;152821.16;6244169;23;20503;-63
2023/05/26 07:59:20;;;;;;;4.63;4.32;;;;;;;27.02;100.00;152836.50;6244046;23;20164;-63
2023/05/26 08:01:47;;;;;;;3.13;2.90;;;;;;;27.02;100.00;152837.78;6243944;23;20181;-63
2023/05/26 08:04:15;;;;;;;2.58;2.47;;;;;;;27.07;100.00;152849.31;6244758;23;20205;-63
2023/05/26 08:06:42;;;;;;;2.60;2.50;;;;;;;27.44;100.00;152943.97;6247345;23;20156;-63
2023/05/26 08:09:10;;;;;;;2.22;2.13;;;;;;;27.87;94.35;153052.78;6246904;23;20179;-63
2023/05/26 08:11:37;;;;;;;4.07;2.40;;;;;;;27.25;95.71;152896.63;6246803;23;20184;-64
2023/05/26 08:14:04;;;;;;;2.20;2.10;;;;;;;27.25;94.59;152895.34;6246423;23;20157;-66
2023/05/26 08:16:31;;;;;;;2.83;2.72;;;;;;;26.60;100.00;152730.31;6247854;23;20161;-66
2023/05/26 08:18:58;;;;;;;3.22;2.60;;;;;;;26.63;100.00;152737.97;6247189;23;20168;-64
2023/05/26 08:21:26;;;;;;;2.40;2.20;;;;;;;26.20;100.00;152629.28;6247732;23;20189;-63
2023/05/26 08:23:53;;;;;;;2.45;2.35;;;;;;;26.60;96.20;152731.59;6247079;23;20187;-64
2023/05/26 08:26:20;;;;;;;3.63;2.22;;;;;;;26.29;99.62;152653.59;6246797;23;20207;-64
2023/05/26 08:28:47;;;;;;;2.55;2.45;;;;;;;26.55;100.00;152718.81;6247207;23;20172;-65
2023/05/26 08:31:15;;;;;;;2.40;2.30;;;;;;;26.63;100.00;152739.25;6247626;23;20236;-64
2023/05/26 08:33:42;;;;;;;2.65;2.30;;;;;;;27.11;100.00;152860.84;6248022;23;20666;-64
2023/05/26 08:36:10;;;;;;;3.92;2.65;;;;;;;27.69;100.00;153008.00;6247524;23;20173;-66
2023/05/26 08:38:38;;;;;;;2.50;2.30;;;;;;;28.26;85.87;153151.41;6247608;23;20619;-64
2023/05/26 08:41:06;;;;;;;5.72;2.42;;;;;;;28.54;86.97;153223.09;6247260;23;20161;-64
2023/05/26 08:43:42;;;;;;;2.15;2.05;;;;;;;26.98;92.28;152827.56;6247595;23;20596;-63
2023/05/26 08:46:12;;;;;;;1.77;1.77;;;;;;;26.14;96.10;152613.94;6247998;23;20157;-63
2023/05/26 08:48:40;;;;;;;2.10;2.08;;;;;;;26.16;100.00;152619.03;6246412;23;20603;-65
2023/05/26 08:51:09;;;;;;;2.85;2.15;;;;;;;26.27;100.00;152648.47;6248441;23;20157;-64
2023/05/26 08:53:38;;;;;;;2.50;2.40;;;;;;;26.65;100.00;152743.13;6248842;23;20548;-64
2023/05/26 08:56:05;;;;;;;5.97;3.47;;;;;;;27.02;100.00;152836.50;6248595;23;20236;-66
2023/05/26 08:58:33;;;;;;;3.72;2.38;;;;;;;26.75;95.22;152768.66;6249099;23;20168;-65
2023/05/26 09:01:02;;;;;;;2.83;2.33;;;;;;;26.31;100.00;152658.69;6248891;23;20160;-62
2023/05/26 09:03:29;;;;;;;2.42;2.33;;;;;;;26.26;100.00;152645.94;6247070;23;20177;-64
2023/05/26 09:05:55;;;;;;;2.75;2.65;;;;;;;26.36;100.00;152670.19;6248258;23;20651;-65
2023/05/26 09:08:23;;;;;;;1.98;1.98;;;;;;;26.64;100.00;152741.84;6248124;23;20167;-64
2023/05/26 09:10:53;;;;;;;2.75;2.45;;;;;;;27.17;100.00;152876.16;6247145;23;20171;-63
2023/05/26 09:13:21;;;;;;;3.70;3.25;;;;;;;27.63;100.00;152992.63;6248740;23;20157;-64
2023/05/26 09:15:52;;;;;;;2.70;2.55;;;;;;;27.78;99.74;153029.75;6248932;23;20559;-63
2023/05/26 09:18:19;;;;;;;3.50;2.28;;;;;;;27.81;91.34;153037.41;6248717;23;20542;-64
2023/05/26 09:20:48;;;;;;;6.93;2.78;;;;;;;28.10;88.55;153110.41;6247267;23;20595;-63
2023/05/26 09:23:16;;;;;;;2.40;2.30;;;;;;;28.15;84.42;153123.22;6248753;23;20205;-63
2023/05/26 09:25:45;;;;;;;2.65;2.45;;;;;;;28.14;88.54;153120.66;6249529;23;20167;-65
2023/05/26 09:28:16;;;;;;;2.75;2.65;;;;;;;28.50;86.07;153212.84;6247302;23;20164;-64
2023/05/26 09:30:45;;;;;;;2.95;2.75;;;;;;;28.79;83.60;153285.84;6247747;23;20165;-64
2023/05/26 09:33:14;;;;;;;2.60;2.50;;;;;;;28.64;80.05;153247.41;6247306;23;20175;-63
2023/05/26 09:35:43;;;;;;;2.80;2.70;;;;;;;28.08;86.82;153105.25;6245740;23;20176;-66
2023/05/26 09:38:12;;;;;;;4.07;3.88;;;;;;;27.65;100.00;152997.75;6246823;23;20180;-64
2023/05/26 09:40:41;;;;;;;4.53;3.42;;;;;;;27.35;100.00;152920.94;6246637;23;20239;-64
2023/05/26 09:43:09;;;;;;;4.10;3.60;;;;;;;27.37;100.00;152924.78;6215358;23;20320;-64
2023/05/26 09:45:38;;;;;;;6.03;3.50;;;;;;;26.93;100.00;152813.47;6215899;23;20191;-63
2023/05/26 09:48:10;;;;;;;5.15;3.60;;;;;;;26.73;100.00;152764.81;6215426;23;20167;-64
2023/05/26 09:50:38;;;;;;;4.40;4.05;;;;;;;26.59;100.00;152729.03;6215355;23;20252;-63
2023/05/26 09:53:09;;;;;;;5.10;4.07;;;;;;;26.41;100.00;152681.72;6215839;23;20228;-63
2023/05/26 09:55:42;;;;;;;3.90;3.80;;;;;;;26.56;100.00;152721.38;6215602;23;20154;-64
2023/05/26 09:58:10;;;;;;;3.83;3.63;;;;;;;26.03;100.00;152585.78;6215354;23;20157;-63
2023/05/26 10:00:44;;;;;;;4.25;3.67;;;;;;;25.29;100.00;152399.19;6216092;23;20161;-64
2023/05/26 10:03:12;;;;;;;4.05;3.80;;;;;;;25.50;100.00;152451.56;6215239;23;20185;-63
2023/05/26 10:05:44;;;;;;;4.05;3.75;;;;;;;25.75;100.00;152516.78;6215708;23;20196;-63
2023/05/26 10:08:14;;;;;;;18.45;4.65;;;;;;;26.24;100.00;152639.50;6244759;23;20163;-63
2023/05/26 10:10:44;;;;;;;5.65;3.70;;;;;;;26.33;100.00;152662.53;6245595;23;20163;-64
2023/05/26 10:13:12;;;;;;;5.32;4.47;;;;;;;26.38;100.00;152675.34;6245547;23;20160;-64
2023/05/26 10:15:40;;;;;;;4.45;4.22;;;;;;;26.63;100.00;152739.25;6245730;23;20591;-64
2023/05/26 10:18:07;;;;;;;4.18;3.90;;;;;;;26.73;100.00;152764.81;6245798;23;20588;-64
2023/05/26 10:20:36;;;;;;;4.43;4.13;;;;;;;26.50;100.00;152706.00;6246825;23;20464;-64
2023/05/26 10:23:08;;;;;;;5.70;5.05;;;;;;;25.85;100.00;152541.03;6245855;23;20204;-62
2023/05/26 10:25:40;;;;;;;5.05;4.38;;;;;;;26.01;100.00;152580.69;6245570;23;20219;-63
2023/05/26 10:28:14;;;;;;;5.13;3.97;;;;;;;25.91;100.00;152557.69;6245224;23;20192;-63
2023/05/26 10:30:43;;;;;;;6.70;4.45;;;;;;;25.08;100.00;152345.50;6246113;23;20271;-63
2023/05/26 10:33:11;;;;;;;5.38;4.80;;;;;;;25.26;100.00;152391.47;6245878;23;20588;-63
2023/05/26 10:35:39;;;;;;;5.20;4.43;;;;;;;24.89;100.00;152298.22;6246136;23;20157;-65
2023/05/26 10:38:13;;;;;;;6.78;4.05;;;;;;;24.59;100.00;152222.81;6249227;23;20165;-63
2023/05/26 10:40:43;;;;;;;5.55;3.72;;;;;;;24.16;100.00;152113.00;6248738;23;20160;-65
2023/05/26 10:43:22;;;;;;;4.38;4.18;;;;;;;23.78;100.00;152017.22;6246047;23;20200;-65
2023/05/26 10:45:55;;;;;;;5.65;4.30;;;;;;;23.65;100.00;151985.31;6245609;23;20195;-63
2023/05/26 10:48:22;;;;;;;4.05;3.85;;;;;;;23.41;100.00;151925.28;6245397;23;20160;-63
2023/05/26 10:51:09;;;;;;;4.60;4.20;;;;;;;23.70;100.00;151998.09;6245112;23;20620;-63
2023/05/26 10:53:41;;;;;;;8.40;4.45;;;;;;;23.68;100.00;151992.94;6245331;23;20244;-63
2023/05/26 10:56:11;;;;;;;5.10;4.03;;;;;;;23.52;100.00;151952.13;6245816;23;20157;-64
2023/05/26 10:58:40;;;;;;;5.97;3.78;;;;;;;23.55;100.00;151959.81;6245965;23;20168;-64
2023/05/26 11:01:11;;;;;;;4.57;4.22;;;;;;;23.27;100.00;151888.28;6246459;23;20160;-63
2023/05/26 11:03:43;;;;;;;17.15;15.55;;;;;;;23.29;100.00;151893.41;6247766;23;20671;-65
2023/05/26 11:06:11;;;;;;;4.70;4.43;;;;;;;23.19;100.00;151869.13;6247992;23;20157;-63
2023/05/26 11:08:41;;;;;;;4.53;4.15;;;;;;;23.02;100.00;151827.03;6245764;23;20215;-64
2023/05/26 11:11:10;;;;;;;4.25;3.90;;;;;;;22.96;100.00;151811.72;6245827;23;20594;-63
2023/05/26 11:13:49;;;;;;;7.70;4.03;;;;;;;22.72;100.00;151750.50;6246550;23;20201;-64
2023/05/26 11:16:23;;;;;;;6.65;6.13;;;;;;;22.65;100.00;151732.59;6244956;23;20209;-60
2023/05/26 11:18:51;;;;;;;4.75;4.35;;;;;;;22.24;100.00;151630.56;6245845;23;20168;-63
2023/05/26 11:21:25;;;;;;;5.13;4.50;;;;;;;22.38;100.00;151663.72;6245296;23;20160;-63
2023/05/26 11:23:53;;;;;;;5.57;4.53;;;;;;;22.43;100.00;151676.47;6245657;23;20203;-65
2023/05/26 11:26:21;;;;;;;4.47;4.20;;;;;;;22.37;100.00;151661.16;6245329;23;20164;-63